Etusivu
METAR-TAF:

METAR-TAF

Lentoasemat :

Mountain Home, Idaho, Yhdysvallat

Leveyspiiri: 43-03N, Pituuspiiri: 115-52W, korkeus merenpinnasta: 913 m

Tämänhetkinen sää

Tämä raportti tehtiin 29 minuuttia sitten, kello 02.58 UTC
Tuuli 7 kn luoteesta
Lämpötila 15°C
Kosteus 33%
Ilmanpaine 1013 hPa
Näkyvyys: 16.1 km
selkeää

METAR: KMUO 100258Z AUTO 32007KT 10SM CLR 15/M01 A2990 RMK AO2 SLP122 T01481009 53003 $

Aika: 21:27 (03:27 UTC)

Sääennuste

Tämä raportti tehtiin 27 tuntia ja 8 minuuttia sitten, kello 00.19 UTC
Ennuste voimassa 09. päivästä klo 00 UTC - 09. päivään klo 24 UTC
Tuuli 9 kn luoteesta
Näkyvyys 10 km tai enemmän
selkeää
Tulossa
09. päivästä klo 03 UTC - 09. päivään klo 04 UTC
Tuuli 9 kn luoteesta
Näkyvyys 10 km tai enemmän
selkeää

TAF: KMUO 090019Z 0900/0924 32009KT 9999 SKC QNH3009INS BECMG 0903/0904 32009KT 9999 SKC QNH2995INS LAST NO AMDS AFT 0901Z NEXT 1010Z TX19/0923Z TN02/0913Z

Säähavainnot ja -ennusteet yli 4000 lentoasemalta (METAR- ja TAF-raportit).

Käytössä olevat sääasemat on merkitty karttaan keltaisilla ja punaisilla pisteillä.

Aseta hiiri pisteen päälle nähdäksesi sääaseman nimen.

Klikkaa sitten nähdäksesi säähavainnot ja -ennusteet.

Kartan vaihtaminen: klikkaa mustalla rastilla varustettuja vihreitä pisteitä, niin voit zoomata sisään; viivalla varustettua vihreää pistettä, niin voit zoomata ulos tai vihreitä nuolia, niin pääset viereisille kartoille.


METAR-TAF: